Time;durP1;ratioP1;P1;durP2;ratioP2;P2;SDS_P1;SDS_P2;PMS_P1;PMS_P2;Temp;Humidity;BMP_temperature;BMP_pressure;BME280_temperature;BME280_humidity;BME280_pressure;Samples;Min_cycle;Max_cycle;Signal;HPM_P1;HPM_P2
2023/03/27 00:00:15;;;;;;;9.38;1.83;;;;;;;5.25;100.00;101662.16;5068902;28;20051;-63
2023/03/27 00:02:41;;;;;;;4.50;1.25;;;;;;;5.17;100.00;101663.03;5070152;28;20035;-62
2023/03/27 00:05:07;;;;;;;5.05;1.30;;;;;;;5.03;100.00;101664.75;5067927;28;20541;-62
2023/03/27 00:07:34;;;;;;;6.63;1.40;;;;;;;4.93;100.00;101666.44;5075351;28;20029;-60
2023/03/27 00:10:00;;;;;;;4.40;1.05;;;;;;;4.76;100.00;101675.06;5068839;28;20024;-60
2023/03/27 00:12:26;;;;;;;5.70;1.25;;;;;;;4.63;100.00;101674.16;5068618;28;20042;-63
2023/03/27 00:14:52;;;;;;;6.38;1.30;;;;;;;4.60;100.00;101686.34;5083217;28;20028;-60
2023/03/27 00:17:18;;;;;;;8.38;1.50;;;;;;;4.51;100.00;101694.97;5070577;28;20028;-62
2023/03/27 00:19:43;;;;;;;9.77;1.25;;;;;;;4.47;100.00;101693.22;5087512;28;20032;-62
2023/03/27 00:22:09;;;;;;;9.93;1.45;;;;;;;4.37;100.00;101698.38;5076287;28;20115;-61
2023/03/27 00:24:35;;;;;;;5.65;2.33;;;;;;;4.43;100.00;101703.66;5068999;28;20147;-62
2023/03/27 00:27:01;;;;;;;8.38;1.95;;;;;;;4.34;100.00;101703.63;5067250;28;20060;-61
2023/03/27 00:29:27;;;;;;;12.25;1.52;;;;;;;4.39;100.00;101712.31;5069306;28;20056;-63
2023/03/27 00:31:52;;;;;;;6.18;1.63;;;;;;;4.36;100.00;101709.69;5075527;28;20104;-62
2023/03/27 00:34:17;;;;;;;5.90;1.35;;;;;;;4.29;100.00;101711.41;5060125;28;20150;-62
2023/03/27 00:36:47;;;;;;;10.15;2.03;;;;;;;4.30;100.00;101718.38;5067241;28;20610;-62
2023/03/27 00:39:12;;;;;;;;;;;;;;;4.28;100.00;101721.84;5067194;28;20020;-61
2023/03/27 00:41:37;;;;;;;4.93;1.38;;;;;;;4.32;100.00;101725.31;5068085;28;19913;-63
2023/03/27 00:44:20;;;;;;;7.50;1.80;;;;;;;4.30;100.00;101717.47;5070628;28;20090;-62
2023/03/27 00:46:48;;;;;;;15.85;1.80;;;;;;;4.33;100.00;101725.34;5069389;28;20103;-64
2023/03/27 00:49:14;;;;;;;10.40;1.90;;;;;;;4.32;100.00;101731.41;5049315;28;20041;-62
2023/03/27 00:51:41;;;;;;;8.88;1.90;;;;;;;4.32;100.00;101725.31;5058740;28;20115;-62
2023/03/27 00:54:07;;;;;;;11.20;1.42;;;;;;;4.27;100.00;101727.91;5053284;28;20024;-63
2023/03/27 00:56:33;;;;;;;11.65;1.55;;;;;;;4.22;100.00;101732.22;5049563;28;20024;-61
2023/03/27 00:59:02;;;;;;;10.90;1.63;;;;;;;4.13;100.00;101726.06;5067709;28;20481;-61
2023/03/27 01:01:29;;;;;;;11.10;1.70;;;;;;;4.06;100.00;101733.84;5050462;28;20028;-62
2023/03/27 01:03:58;;;;;;;5.57;2.03;;;;;;;3.96;100.00;101732.88;5069421;28;20036;-61
2023/03/27 01:06:24;;;;;;;7.25;2.28;;;;;;;3.89;100.00;101743.25;5049093;28;20452;-62
2023/03/27 01:08:49;;;;;;;8.73;2.55;;;;;;;3.85;100.00;101745.84;5067345;28;20068;-62
2023/03/27 01:11:33;;;;;;;8.70;2.33;;;;;;;3.76;100.00;101746.63;5068739;28;20085;-63
2023/03/27 01:14:20;;;;;;;9.50;2.10;;;;;;;3.64;100.00;101747.38;5140000;22;20056;-62
2023/03/27 01:17:09;;;;;;;8.43;1.55;;;;;;;3.50;100.00;101747.25;5068053;28;20032;-64
2023/03/27 01:19:44;;;;;;;5.65;1.60;;;;;;;3.38;100.00;101750.59;5066433;28;20040;-59
2023/03/27 01:22:57;;;;;;;6.00;2.20;;;;;;;3.39;100.00;101763.66;5042193;28;20491;-58
2023/03/27 01:25:53;;;;;;;13.32;3.65;;;;;;;3.42;100.00;101757.59;5041720;28;20052;-62
2023/03/27 01:28:56;;;;;;;9.50;2.17;;;;;;;3.53;100.00;101755.97;5047457;28;20028;-62
2023/03/27 01:31:26;;;;;;;10.95;2.30;;;;;;;3.58;100.00;101760.38;5060675;28;20020;-63
2023/03/27 01:34:18;;;;;;;13.25;2.85;;;;;;;3.56;100.00;101765.56;5067732;28;20069;-62
2023/03/27 01:37:05;;;;;;;10.25;2.05;;;;;;;3.72;100.00;101773.53;5048605;28;20069;-62
2023/03/27 01:39:35;;;;;;;17.45;2.08;;;;;;;3.78;100.00;101782.28;5067889;28;20389;-63
2023/03/27 01:42:06;;;;;;;14.07;2.88;;;;;;;3.96;100.00;101785.03;5031384;28;20108;-64
2023/03/27 01:44:46;;;;;;;12.10;1.48;;;;;;;4.09;100.00;101792.13;5029526;28;20029;-64
2023/03/27 01:47:20;;;;;;;7.32;1.60;;;;;;;4.21;100.00;101791.34;5044828;28;20045;-63
2023/03/27 01:50:23;;;;;;;11.10;1.83;;;;;;;4.32;100.00;101785.34;5031686;28;20052;-63
2023/03/27 01:52:53;;;;;;;19.00;1.83;;;;;;;4.45;100.00;101789.78;5067410;28;20143;-63
2023/03/27 01:55:22;;;;;;;8.50;1.50;;;;;;;4.50;100.00;101793.31;5049629;28;20025;-60
2023/03/27 01:57:53;;;;;;;5.85;1.50;;;;;;;4.52;100.00;101796.78;5049595;28;20020;-64
2023/03/27 02:00:21;;;;;;;7.43;1.88;;;;;;;4.48;100.00;101797.63;5031585;28;20036;-63
2023/03/27 02:02:51;;;;;;;12.95;2.17;;;;;;;4.50;100.00;101798.53;5049106;28;20409;-63
2023/03/27 02:05:22;;;;;;;7.40;1.65;;;;;;;4.57;100.00;101802.03;5049108;28;20648;-62
2023/03/27 02:08:25;;;;;;;10.52;1.42;;;;;;;4.61;100.00;101805.56;5050151;28;20029;-62
2023/03/27 02:10:54;;;;;;;7.47;1.80;;;;;;;4.62;100.00;101802.97;5029068;28;20043;-58
2023/03/27 02:13:21;;;;;;;;;;;;;;;4.64;100.00;101806.44;5067755;28;20036;-63
2023/03/27 02:15:48;;;;;;;4.35;1.33;;;;;;;4.68;100.00;101802.13;5049794;28;19913;-63
2023/03/27 02:18:18;;;;;;;7.13;1.77;;;;;;;4.74;100.00;101814.34;5048908;28;20482;-61
2023/03/27 02:20:44;;;;;;;8.75;1.60;;;;;;;4.73;100.00;101818.66;5048691;28;20111;-64
2023/03/27 02:23:10;;;;;;;6.10;1.58;;;;;;;4.67;100.00;101826.50;5068482;28;20108;-62
2023/03/27 02:25:40;;;;;;;2.30;1.23;;;;;;;4.70;100.00;101829.13;5067871;28;20068;-63
2023/03/27 02:28:33;;;;;;;7.97;1.80;;;;;;;4.72;100.00;101821.31;5049005;28;20031;-64
2023/03/27 02:31:11;;;;;;;10.30;1.98;;;;;;;4.70;100.00;101836.06;5062382;28;20048;-59
2023/03/27 02:34:14;;;;;;;5.85;1.70;;;;;;;4.57;100.00;101835.13;5067554;28;20037;-62
2023/03/27 02:37:02;;;;;;;5.63;1.92;;;;;;;4.47;100.00;101829.81;5066939;28;20029;-63
2023/03/27 02:39:37;;;;;;;6.63;1.60;;;;;;;4.34;100.00;101833.19;5048963;28;20474;-66
2023/03/27 02:42:17;;;;;;;4.75;1.27;;;;;;;4.24;100.00;101833.13;5048039;28;20099;-63
2023/03/27 02:44:55;;;;;;;5.43;1.25;;;;;;;4.21;100.00;101837.44;5067353;28;20102;-64
2023/03/27 02:47:29;;;;;;;8.60;1.42;;;;;;;4.21;100.00;101842.66;5048070;28;20372;-60
2023/03/27 02:50:08;;;;;;;6.00;1.13;;;;;;;4.15;100.00;101843.47;5065206;28;20056;-62
2023/03/27 02:52:41;;;;;;;8.43;1.23;;;;;;;4.03;100.00;101850.31;5065905;28;20031;-61
2023/03/27 02:55:14;;;;;;;5.13;1.13;;;;;;;3.97;100.00;101855.47;5048718;28;20036;-61
2023/03/27 02:57:42;;;;;;;5.63;1.33;;;;;;;3.95;100.00;101852.00;5051216;28;20681;-63
2023/03/27 03:00:25;;;;;;;2.28;0.80;;;;;;;3.85;100.00;101860.59;5052126;28;20037;-60
2023/03/27 03:03:04;;;;;;;3.15;0.88;;;;;;;3.73;100.00;101862.19;5068735;28;20024;-63
2023/03/27 03:05:30;;;;;;;6.25;1.58;;;;;;;3.68;100.00;101861.28;5069616;28;20020;-62
2023/03/27 03:07:56;;;;;;;4.90;1.20;;;;;;;3.69;100.00;101872.56;5070281;28;20033;-58
2023/03/27 03:10:23;;;;;;;2.05;1.02;;;;;;;3.64;100.00;101878.59;5070270;28;20029;-63
2023/03/27 03:12:49;;;;;;;1.65;0.75;;;;;;;3.74;100.00;101889.13;5069412;28;20493;-61
2023/03/27 03:15:15;;;;;;;6.40;1.08;;;;;;;3.51;100.00;101902.75;5052175;28;20091;-64
2023/03/27 03:17:41;;;;;;;4.45;0.85;;;;;;;3.63;100.00;101896.81;5070446;28;20032;-62
2023/03/27 03:20:08;;;;;;;6.97;1.50;;;;;;;3.82;100.00;101913.56;5069837;28;20020;-62
2023/03/27 03:22:35;;;;;;;3.55;0.80;;;;;;;3.96;100.00;101910.22;5069190;28;20086;-62
2023/03/27 03:25:00;;;;;;;4.72;1.00;;;;;;;4.08;100.00;101909.47;5070912;28;20100;-63
2023/03/27 03:27:28;;;;;;;4.90;0.75;;;;;;;4.06;100.00;101921.66;5052005;28;20108;-64
2023/03/27 03:29:55;;;;;;;3.67;0.88;;;;;;;4.12;100.00;101926.94;5070100;28;20029;-64
2023/03/27 03:32:21;;;;;;;6.22;1.10;;;;;;;4.09;100.00;101932.13;5069123;28;20115;-63
2023/03/27 03:34:46;;;;;;;4.70;1.20;;;;;;;4.02;100.00;101928.56;5051798;28;20492;-65
2023/03/27 03:37:12;;;;;;;3.50;0.88;;;;;;;4.09;100.00;101927.75;5070120;28;20035;-64
2023/03/27 03:39:37;;;;;;;8.48;1.73;;;;;;;4.16;100.00;101940.00;5070240;28;20359;-62
2023/03/27 03:42:03;;;;;;;7.75;1.00;;;;;;;4.18;100.00;101934.81;5068373;28;20034;-61
2023/03/27 03:44:28;;;;;;;7.97;1.17;;;;;;;4.24;100.00;101928.81;5070557;28;20505;-60
2023/03/27 03:46:53;;;;;;;3.88;1.13;;;;;;;4.20;100.00;101927.00;5069512;28;20119;-64
2023/03/27 03:49:19;;;;;;;9.95;1.40;;;;;;;4.13;100.00;101924.31;5068406;28;20047;-63
2023/03/27 03:51:44;;;;;;;4.32;0.90;;;;;;;3.99;100.00;101936.34;5068692;28;20024;-63
2023/03/27 03:54:10;;;;;;;5.25;0.95;;;;;;;3.90;100.00;101931.91;5069023;28;20024;-63
2023/03/27 03:56:40;;;;;;;3.55;1.00;;;;;;;3.74;100.00;101925.63;5051519;28;20408;-61
2023/03/27 03:59:05;;;;;;;4.22;0.77;;;;;;;3.64;100.00;101927.22;5068085;28;20573;-65
2023/03/27 04:01:31;;;;;;;5.32;1.00;;;;;;;3.51;100.00;101934.91;5068479;28;20020;-61
2023/03/27 04:03:56;;;;;;;8.23;1.05;;;;;;;3.43;100.00;101936.53;5068888;28;20064;-63
2023/03/27 04:06:24;;;;;;;7.32;1.20;;;;;;;3.35;100.00;101943.38;5050924;28;20100;-63
2023/03/27 04:08:49;;;;;;;4.80;1.20;;;;;;;3.28;100.00;101945.88;5068291;28;20024;-63
2023/03/27 04:11:15;;;;;;;7.55;1.05;;;;;;;3.23;100.00;101937.13;5052487;28;20040;-64
2023/03/27 04:13:41;;;;;;;5.15;1.00;;;;;;;3.18;100.00;101940.50;5066897;28;20104;-64
2023/03/27 04:16:06;;;;;;;5.50;1.55;;;;;;;3.07;100.00;101940.38;5068743;28;20116;-62
2023/03/27 04:18:33;;;;;;;9.05;1.45;;;;;;;3.01;100.00;101944.63;5067769;28;20025;-61
2023/03/27 04:20:59;;;;;;;2.95;1.20;;;;;;;2.99;100.00;101948.06;5068036;28;20100;-63
2023/03/27 04:23:31;;;;;;;7.25;1.60;;;;;;;2.92;100.00;101954.88;5068421;28;20562;-62
2023/03/27 04:25:59;;;;;;;10.90;1.77;;;;;;;2.86;100.00;101968.69;5066515;28;20552;-63
2023/03/27 04:28:26;;;;;;;2.88;1.13;;;;;;;2.89;100.00;101973.94;5048637;28;20071;-62
2023/03/27 04:30:51;;;;;;;8.20;1.45;;;;;;;2.89;100.00;101981.75;5049162;28;20107;-62
2023/03/27 04:33:17;;;;;;;5.63;1.20;;;;;;;2.89;100.00;101975.69;5048803;28;20475;-60
2023/03/27 04:35:45;;;;;;;13.77;1.70;;;;;;;3.07;100.00;101976.81;5060787;28;20044;-62
2023/03/27 04:38:12;;;;;;;10.95;1.98;;;;;;;3.12;100.00;101999.47;5068224;28;20058;-65
2023/03/27 04:40:38;;;;;;;5.78;1.20;;;;;;;3.11;100.00;102028.09;5068301;28;20150;-63
2023/03/27 04:43:03;;;;;;;8.20;2.55;;;;;;;3.09;100.00;102050.63;5067289;28;20056;-64
2023/03/27 04:45:31;;;;;;;12.90;1.88;;;;;;;3.15;100.00;102059.44;5068534;28;20524;-62
2023/03/27 04:47:57;;;;;;;5.35;1.30;;;;;;;3.27;100.00;102052.66;5067376;28;20032;-63
2023/03/27 04:50:22;;;;;;;8.32;1.30;;;;;;;3.17;100.00;102049.06;5066561;28;20032;-62
2023/03/27 04:52:48;;;;;;;8.90;1.70;;;;;;;3.06;100.00;102038.44;5066593;28;20034;-62
2023/03/27 04:55:13;;;;;;;8.35;1.70;;;;;;;3.12;100.00;102029.84;5064815;28;20099;-60
2023/03/27 04:57:40;;;;;;;3.92;1.20;;;;;;;3.23;100.00;102043.06;5067627;28;20113;-63
2023/03/27 05:00:17;;;;;;;13.48;1.67;;;;;;;3.16;100.00;102036.84;5066017;28;20036;-64
2023/03/27 05:02:43;;;;;;;5.68;1.00;;;;;;;2.97;100.00;102035.69;5067182;28;20470;-56
2023/03/27 05:05:09;;;;;;;10.13;1.20;;;;;;;3.02;100.00;102024.50;5066146;28;20073;-60
2023/03/27 05:07:34;;;;;;;4.35;1.10;;;;;;;3.00;100.00;102023.59;5050213;28;20029;-64
2023/03/27 05:10:01;;;;;;;3.70;1.10;;;;;;;3.06;100.00;102027.13;5064112;28;20036;-63
2023/03/27 05:12:27;;;;;;;5.78;1.08;;;;;;;3.01;100.00;102021.88;5065028;28;20089;-63
2023/03/27 05:14:52;;;;;;;5.28;1.20;;;;;;;3.04;100.00;102016.69;5061768;28;20429;-63
2023/03/27 05:17:17;;;;;;;2.15;1.33;;;;;;;3.05;100.00;102017.59;5066748;28;20098;-61
2023/03/27 05:19:43;;;;;;;2.03;1.00;;;;;;;3.06;100.00;102021.94;5065105;28;20028;-63
2023/03/27 05:22:09;;;;;;;9.38;1.15;;;;;;;2.88;100.00;102028.59;5066130;28;20427;-62
2023/03/27 05:24:34;;;;;;;2.25;0.70;;;;;;;2.85;100.00;102028.53;5054806;28;20100;-60
2023/03/27 05:26:59;;;;;;;5.95;1.40;;;;;;;2.76;100.00;102027.53;5029496;28;20079;-60
2023/03/27 05:29:25;;;;;;;7.28;1.10;;;;;;;2.71;100.00;102038.72;5048106;28;20117;-61
2023/03/27 05:31:51;;;;;;;2.63;1.13;;;;;;;2.67;100.00;102044.72;5047691;28;20052;-63
2023/03/27 05:34:18;;;;;;;6.00;1.10;;;;;;;2.62;100.00;102048.09;5046684;28;20036;-61
2023/03/27 05:36:44;;;;;;;5.07;1.83;;;;;;;2.60;100.00;102051.50;5065944;28;20514;-63
2023/03/27 05:39:09;;;;;;;8.20;1.30;;;;;;;2.64;100.00;102048.13;5067270;28;20029;-58
2023/03/27 05:41:34;;;;;;;6.65;1.17;;;;;;;2.71;100.00;102055.19;5066630;28;20508;-62
2023/03/27 05:44:00;;;;;;;5.60;1.50;;;;;;;2.78;100.00;102054.47;5067153;28;20459;-62
2023/03/27 05:46:25;;;;;;;5.10;1.05;;;;;;;2.88;100.00;102047.69;5066173;28;20105;-62
2023/03/27 05:48:51;;;;;;;4.97;1.20;;;;;;;2.97;100.00;102044.38;5067593;28;20028;-63
2023/03/27 05:51:16;;;;;;;4.88;1.30;;;;;;;2.97;100.00;102049.59;5057208;28;20067;-62
2023/03/27 05:53:42;;;;;;;10.93;1.63;;;;;;;2.92;100.00;102058.16;5047492;28;20032;-63
2023/03/27 05:56:08;;;;;;;13.07;2.97;;;;;;;2.93;100.00;102058.19;5048265;28;20090;-62
2023/03/27 05:58:34;;;;;;;6.03;2.72;;;;;;;2.96;100.00;102063.47;5062821;28;20063;-62
2023/03/27 06:01:01;;;;;;;7.15;2.05;;;;;;;2.89;100.00;102072.88;5049627;28;20103;-62
2023/03/27 06:03:29;;;;;;;8.15;1.65;;;;;;;2.99;100.00;102075.66;5066605;28;20031;-62
2023/03/27 06:05:58;;;;;;;10.05;1.67;;;;;;;3.02;100.00;102071.38;5069664;28;20386;-63
2023/03/27 06:08:25;;;;;;;5.05;1.65;;;;;;;3.09;100.00;102071.47;5069872;28;20028;-63
2023/03/27 06:10:50;;;;;;;9.23;2.53;;;;;;;3.22;100.00;102068.22;5069155;28;20024;-62
2023/03/27 06:13:16;;;;;;;4.57;1.48;;;;;;;3.36;100.00;102080.59;5066227;28;20025;-61
2023/03/27 06:15:42;;;;;;;5.03;2.30;;;;;;;3.42;100.00;102083.31;5066863;28;20020;-61
2023/03/27 06:18:09;;;;;;;13.95;1.80;;;;;;;3.64;100.00;102081.91;5065796;28;20115;-60
2023/03/27 06:20:35;;;;;;;4.07;1.85;;;;;;;3.89;100.00;102090.09;5066963;28;20028;-63
2023/03/27 06:23:02;;;;;;;4.68;1.58;;;;;;;3.98;100.00;102106.72;5065791;28;20463;-62
2023/03/27 06:25:30;;;;;;;7.00;1.60;;;;;;;3.87;100.00;102107.47;5060268;28;20479;-60
2023/03/27 06:27:56;;;;;;;10.85;1.83;;;;;;;3.91;100.00;102100.53;5065190;28;20394;-61
2023/03/27 06:30:23;;;;;;;10.02;1.98;;;;;;;4.02;100.00;102104.19;5047384;28;20486;-64
2023/03/27 06:32:51;;;;;;;8.63;1.60;;;;;;;4.11;100.00;102116.50;5068622;28;20052;-60
2023/03/27 06:35:17;;;;;;;9.98;1.63;;;;;;;4.25;100.00;102114.03;5065100;28;20057;-63
2023/03/27 06:37:45;;;;;;;10.18;2.33;;;;;;;4.33;100.00;102119.38;5061142;28;20036;-63
2023/03/27 06:40:19;;;;;;;10.77;2.15;;;;;;;4.48;100.00;102123.06;5069866;28;20052;-61
2023/03/27 06:43:21;;;;;;;6.70;1.70;;;;;;;4.62;100.00;102117.97;5069730;28;20033;-59
2023/03/27 06:45:50;;;;;;;5.68;1.88;;;;;;;4.65;100.00;102115.41;5021741;28;20423;-65
2023/03/27 06:48:17;;;;;;;9.95;2.00;;;;;;;4.70;100.00;102113.75;5069731;28;20029;-62
2023/03/27 06:50:43;;;;;;;16.02;2.08;;;;;;;4.78;100.00;102113.78;5067430;28;20123;-63
2023/03/27 06:53:09;;;;;;;9.15;2.08;;;;;;;4.90;100.00;102111.31;5067564;28;20054;-62
2023/03/27 06:55:35;;;;;;;11.15;1.70;;;;;;;5.17;100.00;102122.03;5067062;28;20630;-61
2023/03/27 06:58:02;;;;;;;9.73;1.70;;;;;;;5.51;100.00;102124.94;5066662;28;20024;-63
2023/03/27 07:00:33;;;;;;;5.70;1.50;;;;;;;5.61;100.00;102125.91;5051311;28;20048;-60
2023/03/27 07:03:04;;;;;;;8.93;1.48;;;;;;;5.61;100.00;102125.91;5068943;28;22111;-59
2023/03/27 07:05:32;;;;;;;8.48;1.83;;;;;;;5.67;100.00;102132.91;5068767;28;20082;-62
2023/03/27 07:07:58;;;;;;;7.88;1.65;;;;;;;5.88;100.00;102139.16;5068530;28;20216;-62
2023/03/27 07:10:24;;;;;;;7.43;1.48;;;;;;;6.27;100.00;102137.69;5051137;28;20528;-62
2023/03/27 07:12:51;;;;;;;4.72;1.40;;;;;;;6.68;100.00;102137.81;5070577;28;20087;-62
2023/03/27 07:15:17;;;;;;;6.50;1.17;;;;;;;6.85;100.00;102166.72;5051131;28;20047;-64
2023/03/27 07:17:43;;;;;;;4.72;0.93;;;;;;;6.76;100.00;102171.91;5069086;28;20103;-62
2023/03/27 07:20:12;;;;;;;6.07;1.10;;;;;;;6.61;100.00;102157.91;5068971;28;20020;-61
2023/03/27 07:22:41;;;;;;;4.97;0.80;;;;;;;6.42;100.00;102167.41;5068420;28;20028;-62
2023/03/27 07:25:07;;;;;;;;;;;;;;;6.19;100.00;102187.38;5029854;28;20028;-57
2023/03/27 07:27:33;;;;;;;5.55;1.10;;;;;;;5.49;100.00;102207.72;5041003;28;19916;-62
2023/03/27 07:30:00;;;;;;;3.83;1.00;;;;;;;5.15;100.00;102178.66;5049152;28;20036;-59
2023/03/27 07:32:28;;;;;;;4.20;1.92;;;;;;;4.94;100.00;102182.78;5068515;28;20056;-61
2023/03/27 07:34:53;;;;;;;1.52;0.88;;;;;;;4.91;100.00;102178.38;5066792;28;20032;-61
2023/03/27 07:37:21;;;;;;;8.07;0.88;;;;;;;4.96;100.00;102180.19;5065077;28;20043;-62
2023/03/27 07:39:47;;;;;;;4.75;1.13;;;;;;;5.02;100.00;102186.34;5057036;28;20017;-65
2023/03/27 07:42:12;;;;;;;2.10;0.70;;;;;;;5.07;100.00;102189.00;5058302;28;20092;-62
2023/03/27 07:44:37;;;;;;;4.80;0.95;;;;;;;5.21;100.00;102191.75;5059339;28;20540;-58
2023/03/27 07:47:03;;;;;;;7.93;1.30;;;;;;;5.31;100.00;102196.25;5060991;28;20487;-60
2023/03/27 07:49:28;;;;;;;4.88;1.00;;;;;;;5.59;100.00;102206.06;5055474;28;20032;-59
2023/03/27 07:51:53;;;;;;;7.90;1.10;;;;;;;5.81;100.00;102203.66;5059957;28;20033;-62
2023/03/27 07:54:20;;;;;;;7.13;1.80;;;;;;;5.93;100.00;102205.47;5058004;28;20471;-62
2023/03/27 07:56:46;;;;;;;9.70;1.50;;;;;;;5.93;100.00;102200.25;5058282;28;20100;-63
2023/03/27 07:59:12;;;;;;;4.68;1.08;;;;;;;6.15;100.00;102210.91;5058659;28;20031;-62
2023/03/27 08:01:37;;;;;;;3.53;0.98;;;;;;;5.98;100.00;102210.72;5062874;28;20080;-59
2023/03/27 08:04:03;;;;;;;11.93;1.40;;;;;;;5.86;100.00;102214.13;5057492;28;20028;-63
2023/03/27 08:06:28;;;;;;;4.78;1.02;;;;;;;5.69;100.00;102212.28;5056038;28;20031;-60
2023/03/27 08:08:54;;;;;;;5.22;1.52;;;;;;;5.78;100.00;102225.41;5061292;28;20032;-62
2023/03/27 08:11:19;;;;;;;4.50;1.27;;;;;;;5.91;100.00;102223.78;5057099;28;20025;-63
2023/03/27 08:13:45;;;;;;;6.95;1.20;;;;;;;6.13;100.00;102220.47;5061611;28;20090;-65
2023/03/27 08:16:13;;;;;;;7.70;1.45;;;;;;;6.31;100.00;102215.38;5055139;28;20091;-63
2023/03/27 08:18:39;;;;;;;6.50;1.30;;;;;;;6.81;100.00;102223.47;5045141;28;20040;-60
2023/03/27 08:21:07;;;;;;;6.30;1.33;;;;;;;7.40;99.64;102219.25;5058741;28;20024;-61
2023/03/27 08:23:32;;;;;;;7.28;1.08;;;;;;;7.64;94.17;102223.66;5054440;28;20047;-62
2023/03/27 08:25:59;;;;;;;9.60;1.10;;;;;;;7.55;96.27;102247.25;5058499;28;20020;-63
2023/03/27 08:28:29;;;;;;;5.28;1.20;;;;;;;6.55;99.77;102241.69;5045956;28;20032;-62
2023/03/27 08:30:55;;;;;;;12.38;1.35;;;;;;;6.16;100.00;102251.91;5067960;28;20033;-63
2023/03/27 08:33:21;;;;;;;8.10;1.50;;;;;;;6.04;100.00;102250.06;5066679;28;20116;-60
2023/03/27 08:35:49;;;;;;;3.70;0.80;;;;;;;6.06;100.00;102249.19;5067884;28;20429;-61
2023/03/27 08:38:16;;;;;;;4.43;0.73;;;;;;;5.93;100.00;102252.59;5066540;28;20345;-62
2023/03/27 08:40:46;;;;;;;7.10;1.17;;;;;;;5.75;100.00;102253.28;5066706;28;20027;-59
2023/03/27 08:43:15;;;;;;;5.07;1.38;;;;;;;5.81;100.00;102256.81;5066765;28;20610;-61
2023/03/27 08:45:46;;;;;;;9.82;1.85;;;;;;;5.72;100.00;102250.63;5065064;28;20028;-61
2023/03/27 08:48:37;;;;;;;11.63;1.75;;;;;;;6.05;100.00;102244.84;5050046;28;20131;-62
2023/03/27 08:51:06;;;;;;;7.45;1.40;;;;;;;6.13;100.00;102246.63;5050594;28;20127;-61
2023/03/27 08:53:39;;;;;;;7.43;1.17;;;;;;;6.51;100.00;102253.91;5049740;28;20030;-60
2023/03/27 08:56:05;;;;;;;9.75;1.30;;;;;;;6.83;100.00;102250.56;5068561;28;20110;-62
2023/03/27 08:58:33;;;;;;;4.45;1.10;;;;;;;7.20;99.24;102264.69;5050632;28;20107;-59
2023/03/27 09:01:10;;;;;;;6.32;1.35;;;;;;;7.23;92.53;102288.28;5034899;28;20397;-60
2023/03/27 09:04:02;;;;;;;8.38;0.85;;;;;;;7.57;89.96;102272.63;5068167;28;20106;-63
2023/03/27 09:06:40;;;;;;;7.30;1.20;;;;;;;7.57;88.47;102272.63;5005073;28;20086;-60
2023/03/27 09:09:25;;;;;;;4.60;1.08;;;;;;;7.68;86.89;102285.75;5049944;28;20107;-65
2023/03/27 09:12:20;;;;;;;4.85;0.98;;;;;;;7.69;98.74;102313.75;5067470;28;20055;-63
2023/03/27 09:14:50;;;;;;;10.48;1.48;;;;;;;7.29;100.00;102319.75;5067178;28;20052;-60
2023/03/27 09:17:45;;;;;;;8.68;1.42;;;;;;;7.07;100.00;102324.91;5048309;28;20047;-64
2023/03/27 09:20:17;;;;;;;3.75;0.85;;;;;;;6.38;100.00;102333.22;5040339;28;20036;-62
2023/03/27 09:22:46;;;;;;;4.70;0.90;;;;;;;6.21;100.00;102365.38;5057929;28;20033;-62
2023/03/27 09:25:22;;;;;;;1.73;0.80;;;;;;;5.41;100.00;102364.50;5043574;28;20107;-63
2023/03/27 09:27:48;;;;;;;5.60;1.65;;;;;;;5.52;100.00;102382.94;5057939;28;20111;-61
2023/03/27 09:30:27;;;;;;;1.63;0.82;;;;;;;5.29;100.00;102391.38;5044834;28;20039;-57
2023/03/27 09:32:55;;;;;;;2.58;0.65;;;;;;;5.04;100.00;102340.50;5059690;28;20052;-61
2023/03/27 09:35:20;;;;;;;3.85;1.00;;;;;;;5.16;100.00;102343.28;5039337;28;20017;-60
2023/03/27 09:37:59;;;;;;;2.53;1.02;;;;;;;5.26;100.00;102339.03;5054778;28;20114;-58
2023/03/27 09:40:48;;;;;;;2.20;0.68;;;;;;;5.52;100.00;102340.22;5061583;28;20048;-61
2023/03/27 09:43:17;;;;;;;1.45;0.57;;;;;;;5.62;100.00;102338.56;5060308;28;20036;-61
2023/03/27 09:45:43;;;;;;;2.72;0.73;;;;;;;5.64;100.00;102347.31;5057649;28;20104;-58
2023/03/27 09:48:45;;;;;;;4.20;0.93;;;;;;;5.73;100.00;102339.59;5039462;28;20489;-61
2023/03/27 09:51:40;;;;;;;2.88;0.93;;;;;;;6.02;100.00;102349.44;5049206;28;20044;-62
2023/03/27 09:54:06;;;;;;;1.48;0.55;;;;;;;6.36;100.00;102340.19;5063967;28;20507;-57
2023/03/27 09:56:41;;;;;;;2.53;0.80;;;;;;;6.45;100.00;102345.50;5056298;28;20020;-61
2023/03/27 09:59:18;;;;;;;4.28;0.77;;;;;;;6.24;100.00;102340.97;5038132;28;20024;-62
2023/03/27 10:01:49;;;;;;;5.47;1.23;;;;;;;6.18;100.00;102342.66;5056249;28;20064;-61
2023/03/27 10:04:18;;;;;;;3.08;0.85;;;;;;;6.31;100.00;102341.03;5062541;28;20028;-60
2023/03/27 10:06:47;;;;;;;4.78;1.10;;;;;;;6.47;100.00;102348.13;5064047;28;20016;-63
2023/03/27 10:09:25;;;;;;;5.70;1.30;;;;;;;6.63;100.00;102344.75;5070756;28;20024;-61
2023/03/27 10:12:00;;;;;;;5.60;0.90;;;;;;;6.67;100.00;102349.16;5070756;28;20059;-62
2023/03/27 10:14:25;;;;;;;6.80;1.38;;;;;;;6.78;100.00;102341.38;5053441;28;20252;-61
2023/03/27 10:16:51;;;;;;;7.32;1.23;;;;;;;7.15;100.00;102334.56;5051637;28;20119;-58
2023/03/27 10:19:22;;;;;;;7.45;1.23;;;;;;;7.62;100.00;102347.84;5051578;28;20451;-62
2023/03/27 10:21:48;;;;;;;6.20;1.02;;;;;;;7.84;97.04;102344.41;5069810;28;20025;-60
2023/03/27 10:24:16;;;;;;;4.60;1.10;;;;;;;7.77;89.42;102349.63;5068554;28;20031;-62
2023/03/27 10:26:42;;;;;;;4.77;0.90;;;;;;;7.84;87.10;102341.78;5070390;28;20024;-61
2023/03/27 10:29:36;;;;;;;10.68;1.10;;;;;;;8.05;84.90;102347.94;5070532;28;20281;-62
2023/03/27 10:32:04;;;;;;;4.03;1.30;;;;;;;8.24;86.89;102344.44;5069658;28;20074;-62
2023/03/27 10:34:38;;;;;;;6.22;1.27;;;;;;;8.19;92.34;102347.06;5051927;28;20044;-60
2023/03/27 10:37:26;;;;;;;9.25;1.05;;;;;;;7.80;95.73;102349.66;5060629;28;20070;-61
2023/03/27 10:39:53;;;;;;;7.35;1.52;;;;;;;7.46;97.53;102368.78;5066700;28;20028;-62
2023/03/27 10:42:19;;;;;;;9.70;1.25;;;;;;;7.19;96.67;102373.91;5046431;28;20080;-63
2023/03/27 10:44:46;;;;;;;9.88;1.38;;;;;;;7.17;96.33;102378.25;5066166;28;20052;-59
2023/03/27 10:47:20;;;;;;;6.10;0.90;;;;;;;7.24;93.99;102379.19;5050615;28;20020;-61
2023/03/27 10:49:54;;;;;;;6.68;1.15;;;;;;;7.18;87.74;102384.38;5044629;28;20032;-62
2023/03/27 10:52:23;;;;;;;7.70;1.25;;;;;;;7.08;83.49;102373.84;5042389;28;20033;-59
2023/03/27 10:55:33;;;;;;;3.28;0.90;;;;;;;7.50;83.25;102378.44;5053037;28;20919;-59
2023/03/27 10:58:04;;;;;;;9.70;1.35;;;;;;;7.73;80.10;102385.47;4994159;28;20030;-58
2023/03/27 11:00:47;;;;;;;8.30;1.10;;;;;;;7.61;79.88;102385.47;5029743;28;20037;-62
2023/03/27 11:03:33;;;;;;;10.88;1.40;;;;;;;7.92;81.52;102389.03;5048140;28;20075;-61
2023/03/27 11:06:00;;;;;;;10.57;1.65;;;;;;;8.13;82.63;102391.69;5044796;28;20312;-58
2023/03/27 11:08:32;;;;;;;9.07;1.30;;;;;;;8.33;82.99;102407.47;5053588;28;20029;-63
2023/03/27 11:11:06;;;;;;;4.93;1.13;;;;;;;8.13;82.42;102392.56;5068301;28;20029;-61
2023/03/27 11:13:35;;;;;;;7.40;1.20;;;;;;;8.47;82.64;102394.34;5050173;28;20020;-58
2023/03/27 11:16:11;;;;;;;3.42;1.10;;;;;;;8.77;81.83;102416.28;5067590;28;20099;-61
2023/03/27 11:18:40;;;;;;;7.88;1.85;;;;;;;9.04;83.16;102406.59;5047439;28;20474;-61
2023/03/27 11:21:14;;;;;;;6.47;1.30;;;;;;;9.05;83.32;102420.59;5048712;28;20262;-64
2023/03/27 11:23:49;;;;;;;6.90;1.02;;;;;;;8.96;84.52;102424.13;5047611;28;20025;-61
2023/03/27 11:26:15;;;;;;;9.82;1.73;;;;;;;8.80;84.97;102411.00;5066975;28;20097;-63
2023/03/27 11:29:04;;;;;;;8.75;1.38;;;;;;;8.78;90.94;102412.75;5048015;28;20082;-58
2023/03/27 11:31:37;;;;;;;3.45;0.75;;;;;;;8.16;92.34;102423.22;5030118;28;20063;-63
2023/03/27 11:34:14;;;;;;;7.85;1.00;;;;;;;7.83;91.51;102424.00;5046526;28;20506;-64
2023/03/27 11:36:52;;;;;;;5.03;1.13;;;;;;;8.40;92.88;102413.63;5031092;28;20083;-61
2023/03/27 11:39:24;;;;;;;5.35;1.27;;;;;;;8.86;92.25;102420.63;5030563;28;20025;-62
2023/03/27 11:41:53;;;;;;;9.90;1.63;;;;;;;9.30;91.45;102416.16;5030691;28;20164;-62